Time;durP1;ratioP1;P1;durP2;ratioP2;P2;SDS_P1;SDS_P2;PMS_P1;PMS_P2;Temp;Humidity;BMP_temperature;BMP_pressure;BME280_temperature;BME280_humidity;BME280_pressure;Samples;Min_cycle;Max_cycle;Signal;HPM_P1;HPM_P2
2021/12/21 18:13:48;;;;;;;3.45;2.35;;;;;;;22.09;21.94;101413.41;5079101;27;60964;-43
2021/12/21 18:16:16;;;;;;;3.60;2.45;;;;;;;22.18;22.02;101402.75;5079417;28;20040;-43
2021/12/21 18:18:47;;;;;;;5.80;2.60;;;;;;;22.27;21.33;101407.81;5062132;28;20164;-42
2021/12/21 18:21:16;;;;;;;3.42;2.60;;;;;;;22.29;20.78;101408.22;5083603;28;20120;-41
2021/12/21 18:23:43;;;;;;;3.70;2.50;;;;;;;22.31;20.89;101408.59;5080569;28;20032;-41
2021/12/21 18:26:09;;;;;;;3.42;2.63;;;;;;;22.30;20.38;101410.56;5075766;28;20523;-42
2021/12/21 18:28:34;;;;;;;3.63;2.45;;;;;;;22.34;20.00;101413.28;5078063;28;20052;-42
2021/12/21 18:31:00;;;;;;;3.40;2.30;;;;;;;22.38;20.36;101406.59;5081351;28;20051;-40
2021/12/21 18:33:26;;;;;;;3.50;2.38;;;;;;;22.48;20.18;101411.25;5082506;28;20020;-40
2021/12/21 18:35:52;;;;;;;3.28;2.20;;;;;;;22.55;20.07;101415.94;5082025;28;20073;-40
2021/12/21 18:38:20;;;;;;;3.40;2.50;;;;;;;22.55;20.39;101410.41;5082310;28;20028;-40
2021/12/21 18:40:46;;;;;;;4.18;2.53;;;;;;;22.50;20.03;101419.91;5062919;28;20523;-39
2021/12/21 18:43:11;;;;;;;3.42;2.40;;;;;;;22.42;20.03;101404.59;5078312;28;20020;-41
2021/12/21 18:45:37;;;;;;;2.95;2.17;;;;;;;22.38;19.88;101409.34;5075082;28;20115;-40
2021/12/21 18:48:04;;;;;;;3.20;2.25;;;;;;;22.31;19.93;101400.31;5077414;28;20032;-39
2021/12/21 18:50:29;;;;;;;2.88;2.22;;;;;;;22.24;20.23;101406.63;5079748;28;20550;-40
2021/12/21 18:52:55;;;;;;;3.03;2.35;;;;;;;22.21;19.75;101399.97;5079508;28;20028;-40
2021/12/21 18:55:22;;;;;;;3.92;2.50;;;;;;;22.17;20.17;101401.16;5074174;28;20047;-41
2021/12/21 18:57:49;;;;;;;3.25;2.47;;;;;;;22.14;20.06;101399.19;5071181;28;20039;-40
2021/12/21 19:00:15;;;;;;;3.28;2.35;;;;;;;22.10;20.06;101401.19;5073963;28;20036;-40
2021/12/21 19:02:42;;;;;;;3.38;2.40;;;;;;;22.05;20.30;101401.56;5075452;28;20032;-40
2021/12/21 19:05:08;;;;;;;3.63;2.33;;;;;;;22.02;19.69;101405.91;5078961;28;20033;-41
2021/12/21 19:07:34;;;;;;;3.40;2.47;;;;;;;22.00;19.90;101408.28;5076948;28;20401;-43
2021/12/21 19:10:01;;;;;;;3.30;2.55;;;;;;;21.96;20.10;101411.03;5079726;28;20059;-41
2021/12/21 19:12:26;;;;;;;2.97;2.28;;;;;;;21.92;20.16;101412.25;5073489;28;20284;-41
2021/12/21 19:14:52;;;;;;;3.50;2.50;;;;;;;21.92;19.83;101415.00;5082136;28;20086;-41
2021/12/21 19:17:17;;;;;;;2.97;2.20;;;;;;;21.88;19.99;101415.00;5076311;28;20494;-40
2021/12/21 19:19:44;;;;;;;3.80;2.40;;;;;;;21.86;19.75;101406.34;5081041;28;20068;-40
2021/12/21 19:22:10;;;;;;;3.00;2.42;;;;;;;21.83;19.86;101412.66;5080317;28;20261;-40
2021/12/21 19:24:35;;;;;;;3.40;2.28;;;;;;;21.82;19.87;101413.06;5066305;28;20384;-43
2021/12/21 19:27:01;;;;;;;3.60;2.63;;;;;;;21.80;19.75;101418.97;5066880;28;20037;-40
2021/12/21 19:29:28;;;;;;;4.45;2.50;;;;;;;21.80;19.57;101416.22;5069636;28;20111;-40
2021/12/21 19:31:56;;;;;;;3.28;2.63;;;;;;;21.78;19.82;101423.28;5065761;28;20036;-41
2021/12/21 19:34:22;;;;;;;3.70;2.40;;;;;;;21.75;19.93;101426.84;5069038;28;20059;-41
2021/12/21 19:36:48;;;;;;;2.90;2.20;;;;;;;21.75;19.63;101424.88;5067088;28;20412;-42
2021/12/21 19:39:14;;;;;;;3.28;2.30;;;;;;;21.73;20.03;101423.72;5066169;28;20059;-41
2021/12/21 19:41:39;;;;;;;3.22;2.42;;;;;;;21.75;19.58;101418.56;5067440;28;20111;-41
2021/12/21 19:44:05;;;;;;;3.58;2.70;;;;;;;21.81;20.07;101422.50;5068634;28;20031;-42
2021/12/21 19:46:31;;;;;;;2.97;2.17;;;;;;;21.86;19.63;101419.34;5066854;28;20040;-41
2021/12/21 19:48:56;;;;;;;3.13;2.20;;;;;;;21.96;19.72;101426.78;5067970;28;20089;-40
2021/12/21 19:51:24;;;;;;;3.40;2.10;;;;;;;22.02;19.57;101427.19;5067980;28;20476;-42
2021/12/21 19:53:50;;;;;;;3.25;2.38;;;;;;;22.06;19.80;101434.22;5063251;28;20032;-41
2021/12/21 19:56:16;;;;;;;3.20;2.30;;;;;;;22.12;19.47;101438.19;5064183;28;20040;-41
2021/12/21 19:58:42;;;;;;;3.58;2.60;;;;;;;22.17;19.74;101437.78;5062621;28;20044;-41
2021/12/21 20:01:08;;;;;;;2.78;2.13;;;;;;;22.21;19.70;101446.81;5067794;28;20024;-41
2021/12/21 20:03:37;;;;;;;3.17;2.30;;;;;;;22.26;19.60;101442.06;5072852;28;20028;-41
2021/12/21 20:06:03;;;;;;;3.08;2.33;;;;;;;22.29;19.63;101441.28;5068592;28;20041;-40
2021/12/21 20:08:31;;;;;;;4.30;2.45;;;;;;;22.32;19.21;101443.25;5068933;28;20039;-40
2021/12/21 20:11:07;;;;;;;3.10;2.40;;;;;;;22.35;19.31;101448.72;5066132;28;20128;-40
2021/12/21 20:13:32;;;;;;;3.65;2.42;;;;;;;22.38;19.71;101449.91;5068468;28;20032;-41
2021/12/21 20:15:58;;;;;;;3.75;2.30;;;;;;;22.42;19.58;101445.94;5076774;28;20412;-41
2021/12/21 20:18:23;;;;;;;2.75;2.00;;;;;;;22.45;19.40;101449.88;5067175;28;20055;-41
2021/12/21 20:20:50;;;;;;;2.65;1.95;;;;;;;22.48;19.39;101454.59;5068529;28;20040;-42
2021/12/21 20:23:15;;;;;;;3.83;2.60;;;;;;;22.50;19.02;101458.53;5068759;28;20028;-41
2021/12/21 20:25:42;;;;;;;2.72;2.00;;;;;;;22.52;19.18;101447.88;5065476;28;20087;-41
2021/12/21 20:28:07;;;;;;;2.97;2.38;;;;;;;22.53;19.31;101445.91;5065304;28;20168;-41
2021/12/21 20:30:38;;;;;;;3.63;2.10;;;;;;;22.55;19.31;101454.53;5068273;28;20074;-41
2021/12/21 20:33:03;;;;;;;2.25;1.67;;;;;;;22.59;19.45;101451.78;5067180;28;20036;-40
2021/12/21 20:35:29;;;;;;;3.25;2.22;;;;;;;22.60;19.55;101451.38;5068756;28;20044;-41
2021/12/21 20:37:54;;;;;;;3.53;2.47;;;;;;;22.63;19.24;101450.56;5067623;28;20029;-42
2021/12/21 20:40:21;;;;;;;3.30;2.33;;;;;;;22.64;19.15;101454.91;5067176;28;20032;-41
2021/12/21 20:42:47;;;;;;;2.85;2.00;;;;;;;22.66;19.24;101444.28;5068586;28;20032;-41
2021/12/21 20:45:13;;;;;;;3.83;1.98;;;;;;;22.65;19.35;101450.97;5062843;28;20028;-41
2021/12/21 20:47:38;;;;;;;2.65;2.03;;;;;;;22.69;19.18;101453.69;5064037;28;20635;-40
2021/12/21 20:50:06;;;;;;;3.28;2.17;;;;;;;22.71;18.91;101465.91;5066968;28;20032;-40
2021/12/21 20:52:32;;;;;;;2.80;2.10;;;;;;;22.73;18.79;101455.25;5061115;28;20032;-40
2021/12/21 20:54:57;;;;;;;3.13;2.10;;;;;;;22.74;19.06;101454.06;5046112;28;20075;-39
2021/12/21 20:57:23;;;;;;;3.50;2.17;;;;;;;22.77;18.78;101460.75;5067667;28;20035;-39
2021/12/21 20:59:49;;;;;;;2.72;1.95;;;;;;;22.79;19.20;101463.88;5068476;28;20033;-40
2021/12/21 21:02:15;;;;;;;3.22;2.22;;;;;;;22.80;19.24;101460.72;5059439;28;20024;-40
2021/12/21 21:04:40;;;;;;;3.40;2.30;;;;;;;22.81;19.08;101459.53;5062589;28;20403;-40
2021/12/21 21:07:06;;;;;;;2.97;2.03;;;;;;;22.83;18.90;101459.13;5064089;28;20119;-42
2021/12/21 21:09:36;;;;;;;3.10;2.13;;;;;;;22.85;18.79;101464.28;5065807;28;20131;-41
2021/12/21 21:12:05;;;;;;;3.20;2.20;;;;;;;22.84;18.80;101469.03;5066468;28;20542;-40
2021/12/21 21:14:30;;;;;;;3.13;2.10;;;;;;;22.87;18.97;101462.69;5064611;28;20093;-40
2021/12/21 21:16:56;;;;;;;3.38;2.05;;;;;;;22.90;18.80;101472.13;5065231;28;20103;-40
2021/12/21 21:19:22;;;;;;;2.70;2.00;;;;;;;22.90;19.12;101467.41;5065961;28;20032;-41
2021/12/21 21:21:47;;;;;;;2.75;2.00;;;;;;;22.90;18.66;101459.13;5064657;28;20039;-41
2021/12/21 21:24:13;;;;;;;3.25;2.08;;;;;;;22.93;18.78;101455.56;5065466;28;20594;-41
2021/12/21 21:26:38;;;;;;;2.65;1.90;;;;;;;22.93;18.84;101454.75;5066178;28;20376;-41
2021/12/21 21:29:06;;;;;;;4.10;2.15;;;;;;;22.95;18.73;101457.94;5066727;28;20032;-42
2021/12/21 21:31:33;;;;;;;2.97;2.05;;;;;;;22.95;18.75;101458.72;5065799;28;20385;-41
2021/12/21 21:33:58;;;;;;;3.45;1.95;;;;;;;22.97;18.66;101459.09;5067479;28;20516;-41
2021/12/21 21:36:24;;;;;;;3.47;2.45;;;;;;;22.99;18.98;101462.22;5066723;28;20130;-44
2021/12/21 21:38:50;;;;;;;2.88;1.90;;;;;;;23.00;18.64;101463.00;5065010;28;20480;-42
2021/12/21 21:41:15;;;;;;;3.38;2.00;;;;;;;23.01;18.78;101453.53;5068210;28;20051;-41
2021/12/21 21:43:41;;;;;;;2.80;1.95;;;;;;;23.02;18.81;101466.13;5061857;28;20149;-41
2021/12/21 21:46:07;;;;;;;3.38;2.22;;;;;;;23.00;18.86;101463.78;5066256;28;21176;-39
2021/12/21 21:48:32;;;;;;;2.80;2.10;;;;;;;23.01;18.75;101470.09;5065255;28;20058;-39
2021/12/21 21:50:59;;;;;;;3.42;2.17;;;;;;;23.05;18.66;101471.66;5065795;28;20032;-40
2021/12/21 21:56:06;;;;;;;2.78;1.90;;;;;;;23.08;18.96;101478.31;5064489;28;20064;-41
2021/12/21 21:58:32;;;;;;;2.60;1.70;;;;;;;23.09;18.57;101477.91;5065307;28;20036;-41
2021/12/21 22:00:57;;;;;;;3.05;1.90;;;;;;;23.10;18.94;101473.19;5067459;28;20032;-40
2021/12/21 22:03:23;;;;;;;2.50;1.80;;;;;;;23.12;18.85;101473.59;5066172;28;20117;-40
2021/12/21 22:05:48;;;;;;;2.83;1.85;;;;;;;23.12;18.64;101464.50;5074252;28;20127;-41
2021/12/21 22:08:14;;;;;;;2.30;1.70;;;;;;;23.13;18.69;101471.59;5065021;28;20075;-40
2021/12/21 22:10:40;;;;;;;3.10;1.98;;;;;;;23.13;18.57;101466.88;5065114;28;20036;-40
2021/12/21 22:13:05;;;;;;;2.55;1.65;;;;;;;23.16;18.58;101473.56;5061424;28;20107;-40
2021/12/21 22:15:31;;;;;;;2.78;1.90;;;;;;;23.15;18.68;101472.78;5068407;28;20059;-40
2021/12/21 22:17:56;;;;;;;2.88;2.00;;;;;;;23.16;18.85;101476.31;5066822;28;20024;-39
2021/12/21 22:20:22;;;;;;;2.65;2.00;;;;;;;23.17;18.79;101473.13;5067200;28;20033;-42
2021/12/21 22:22:51;;;;;;;2.85;2.10;;;;;;;23.18;18.44;101477.47;5064348;28;20854;-39
2021/12/21 22:25:16;;;;;;;2.70;1.80;;;;;;;23.18;18.49;101485.75;5069876;28;20024;-41
2021/12/21 22:27:42;;;;;;;2.88;1.70;;;;;;;23.19;18.65;101481.78;5065393;28;20032;-39
2021/12/21 22:30:08;;;;;;;2.28;1.67;;;;;;;23.23;18.78;101476.28;5066890;28;20062;-40
2021/12/21 22:32:33;;;;;;;2.58;1.83;;;;;;;23.24;18.68;101480.59;5065689;28;20024;-40
2021/12/21 22:34:59;;;;;;;3.08;2.10;;;;;;;23.24;18.48;101478.63;5067174;28;20097;-40
2021/12/21 22:37:24;;;;;;;2.17;1.80;;;;;;;23.22;18.44;101475.47;5061505;28;20446;-40
2021/12/21 22:39:50;;;;;;;2.35;1.80;;;;;;;23.24;18.58;101480.59;5066488;28;20048;-40
2021/12/21 22:42:15;;;;;;;3.20;2.00;;;;;;;23.25;18.35;101480.19;5062659;28;20029;-40
2021/12/21 22:44:41;;;;;;;2.90;1.90;;;;;;;23.25;18.75;101482.16;5066610;28;20078;-41
2021/12/21 22:47:07;;;;;;;2.80;2.10;;;;;;;23.19;18.41;101481.78;5067332;28;20024;-40
2021/12/21 22:49:34;;;;;;;2.47;1.85;;;;;;;23.11;18.33;101493.28;5066802;28;20070;-41
2021/12/21 22:52:00;;;;;;;2.60;1.90;;;;;;;23.04;18.25;101491.38;5063084;28;20036;-42
2021/12/21 22:54:26;;;;;;;2.80;2.00;;;;;;;22.95;18.52;101494.59;5065075;28;20094;-42
2021/12/21 22:56:51;;;;;;;2.50;1.80;;;;;;;22.90;18.32;101503.28;5079799;28;21031;-40
2021/12/21 22:59:17;;;;;;;2.90;1.88;;;;;;;22.84;18.49;101493.88;5066659;28;20035;-41
2021/12/21 23:01:43;;;;;;;3.15;2.20;;;;;;;22.77;18.43;101480.84;5049543;28;20043;-40
2021/12/21 23:04:08;;;;;;;2.70;2.00;;;;;;;22.75;18.54;101488.75;5070268;28;20024;-40
2021/12/21 23:06:34;;;;;;;2.63;1.83;;;;;;;22.69;18.80;101492.31;5069827;28;21164;-42
2021/12/21 23:09:00;;;;;;;2.70;1.95;;;;;;;22.68;18.55;101494.28;5069376;28;20622;-40
2021/12/21 23:11:26;;;;;;;3.10;2.10;;;;;;;22.64;18.50;101490.75;5070053;28;20388;-40
2021/12/21 23:13:51;;;;;;;2.88;1.85;;;;;;;22.62;18.60;101490.38;5070254;28;20028;-42
2021/12/21 23:16:18;;;;;;;2.85;2.10;;;;;;;22.58;18.80;101494.34;5066967;28;20036;-41
2021/12/21 23:18:44;;;;;;;2.78;1.90;;;;;;;22.55;18.38;101501.44;5069058;28;20042;-41
2021/12/21 23:21:10;;;;;;;2.80;1.80;;;;;;;22.54;18.88;101502.63;5067882;28;20281;-41
2021/12/21 23:23:36;;;;;;;2.90;2.17;;;;;;;22.48;18.51;101505.03;5067437;28;20039;-40
2021/12/21 23:26:02;;;;;;;3.20;2.15;;;;;;;22.46;18.63;101506.63;5070271;28;20042;-41
2021/12/21 23:28:28;;;;;;;2.80;1.90;;;;;;;22.43;18.34;101507.41;5069768;28;20139;-41
2021/12/21 23:30:54;;;;;;;2.38;1.67;;;;;;;22.40;18.57;101502.69;5069151;28;20476;-41
2021/12/21 23:33:19;;;;;;;2.60;1.80;;;;;;;22.31;18.92;101494.06;5066030;28;20269;-41
2021/12/21 23:35:45;;;;;;;2.55;1.98;;;;;;;22.34;18.36;101510.56;5068832;28;20040;-40
2021/12/21 23:38:12;;;;;;;2.95;2.08;;;;;;;22.31;18.44;101507.84;5069330;28;20119;-39
2021/12/21 23:40:37;;;;;;;3.42;2.13;;;;;;;22.29;18.66;101507.44;5051784;28;20044;-41
2021/12/21 23:43:03;;;;;;;2.83;1.98;;;;;;;22.27;18.44;101518.06;5071388;28;20025;-41
2021/12/21 23:45:28;;;;;;;2.85;2.20;;;;;;;;;;5069103;28;20693;-39
2021/12/21 23:47:54;;;;;;;2.50;1.70;;;;;;;22.21;18.62;101518.50;5068169;28;20036;-40
2021/12/21 23:50:19;;;;;;;3.13;2.10;;;;;;;22.20;18.60;101521.66;5065986;28;20048;-41
2021/12/21 23:52:49;;;;;;;3.30;2.13;;;;;;;22.17;18.41;101528.75;5069584;28;20040;-41
2021/12/21 23:55:14;;;;;;;2.92;2.10;;;;;;;22.16;18.79;101524.41;5069345;28;20062;-42
2021/12/21 23:57:40;;;;;;;2.88;2.03;;;;;;;22.14;18.61;101523.22;5067454;28;20028;-42
